createdAt,value
2022-10-07T00:01:12.231Z,1.00
2022-10-07T00:03:40.599Z,0.80
2022-10-07T00:06:11.961Z,1.07
2022-10-07T00:08:41.276Z,0.80
2022-10-07T00:11:13.318Z,1.20
2022-10-07T00:13:43.668Z,0.77
2022-10-07T00:16:13.841Z,0.60
2022-10-07T00:18:43.317Z,0.80
2022-10-07T00:21:13.882Z,0.60
2022-10-07T00:23:43.142Z,1.43
2022-10-07T00:26:14.368Z,1.07
2022-10-07T00:28:43.228Z,0.53
2022-10-07T00:31:14.962Z,0.63
2022-10-07T00:33:43.721Z,1.27
2022-10-07T00:36:17.219Z,1.37
2022-10-07T00:38:45.262Z,0.80
2022-10-07T00:41:19.001Z,2.00
2022-10-07T00:43:47.722Z,0.93
2022-10-07T00:46:24.193Z,0.60
2022-10-07T00:48:52.301Z,0.50
2022-10-07T00:51:20.326Z,0.70
2022-10-07T00:53:51.862Z,0.50
2022-10-07T00:56:21.138Z,0.77
2022-10-07T00:58:51.080Z,1.00
2022-10-07T01:01:20.476Z,0.77
2022-10-07T01:03:50.026Z,0.80
2022-10-07T01:06:18.366Z,1.03
2022-10-07T01:08:48.634Z,0.80
2022-10-07T01:11:30.668Z,0.70
2022-10-07T01:14:07.422Z,0.87
2022-10-07T01:16:42.550Z,1.00
2022-10-07T01:19:47.003Z,0.80
2022-10-07T01:22:26.819Z,0.80
2022-10-07T01:25:09.433Z,0.80
2022-10-07T01:27:40.754Z,0.80
2022-10-07T01:30:10.121Z,0.90
2022-10-07T01:32:41.813Z,0.67
2022-10-07T01:35:13.763Z,0.90
2022-10-07T01:37:47.615Z,1.37
2022-10-07T01:40:20.626Z,0.80
2022-10-07T01:42:51.883Z,0.50
2022-10-07T01:45:21.745Z,0.70
2022-10-07T01:47:50.396Z,0.80
2022-10-07T01:50:24.217Z,0.83
2022-10-07T01:53:05.027Z,1.17
2022-10-07T01:55:51.646Z,0.57
2022-10-07T01:58:39.652Z,0.77
2022-10-07T02:01:18.372Z,0.40
2022-10-07T02:04:18.960Z,0.60
2022-10-07T02:06:53.407Z,0.57
2022-10-07T02:09:28.921Z,0.90
2022-10-07T02:12:02.744Z,0.50
2022-10-07T02:14:39.362Z,0.53
2022-10-07T02:17:14.230Z,0.60
2022-10-07T02:19:47.101Z,0.50
2022-10-07T02:22:18.703Z,0.70
2022-10-07T02:24:49.310Z,0.60
2022-10-07T02:27:22.849Z,0.60
2022-10-07T02:29:55.293Z,0.80
2022-10-07T02:32:26.433Z,0.40
2022-10-07T02:34:58.699Z,0.93
2022-10-07T02:37:29.805Z,0.73
2022-10-07T02:39:58.628Z,0.70
2022-10-07T02:42:31.933Z,0.63
2022-10-07T02:45:12.524Z,0.90
2022-10-07T02:47:47.354Z,0.80
2022-10-07T02:50:21.826Z,0.67
2022-10-07T02:52:51.505Z,0.90
2022-10-07T02:55:23.199Z,1.00
2022-10-07T02:57:55.981Z,0.70
2022-10-07T03:00:25.504Z,0.60
2022-10-07T03:02:56.344Z,0.50
2022-10-07T03:05:26.145Z,0.83
2022-10-07T03:07:56.884Z,0.70
2022-10-07T03:10:26.764Z,1.20
2022-10-07T03:12:54.656Z,0.70
2022-10-07T03:15:23.600Z,0.93
2022-10-07T03:17:53.052Z,0.70
2022-10-07T03:20:20.933Z,0.97
2022-10-07T03:22:48.915Z,0.90
2022-10-07T03:25:17.079Z,0.60
2022-10-07T03:27:46.335Z,0.90
2022-10-07T03:30:14.967Z,0.60
2022-10-07T03:32:43.047Z,0.57
2022-10-07T03:35:12.404Z,0.63
2022-10-07T03:37:40.402Z,0.80
2022-10-07T03:40:09.124Z,0.73
2022-10-07T03:42:37.023Z,0.70
2022-10-07T03:45:06.624Z,1.00
2022-10-07T03:47:35.700Z,0.60
2022-10-07T03:50:03.651Z,0.67
2022-10-07T03:52:32.884Z,0.40
2022-10-07T03:55:00.778Z,0.60
2022-10-07T03:57:46.924Z,1.00
2022-10-07T04:00:15.243Z,0.50
2022-10-07T04:02:43.375Z,0.90
2022-10-07T04:05:11.498Z,0.80
2022-10-07T04:07:40.760Z,1.00
2022-10-07T04:10:09.092Z,0.83
2022-10-07T04:12:36.994Z,0.80
2022-10-07T04:15:05.547Z,1.00
2022-10-07T04:17:33.469Z,0.67
2022-10-07T04:20:01.333Z,0.80
2022-10-07T04:22:29.235Z,0.70
2022-10-07T04:25:15.887Z,0.40
2022-10-07T04:27:52.091Z,0.70
2022-10-07T04:30:20.623Z,0.70
2022-10-07T04:32:50.597Z,0.60
2022-10-07T04:35:18.967Z,0.53
2022-10-07T04:37:49.202Z,1.13
2022-10-07T04:40:20.340Z,0.50
2022-10-07T04:43:06.370Z,0.80
2022-10-07T04:45:35.194Z,0.73
2022-10-07T04:48:04.101Z,1.40
2022-10-07T04:50:32.916Z,1.00
2022-10-07T04:53:01.401Z,0.70
2022-10-07T04:55:30.670Z,0.60
2022-10-07T04:57:58.561Z,0.50
2022-10-07T05:00:26.499Z,0.70
2022-10-07T05:02:54.386Z,0.77
2022-10-07T05:05:22.328Z,0.73
2022-10-07T05:07:51.437Z,0.80
2022-10-07T05:10:19.987Z,0.97
2022-10-07T05:12:52.631Z,0.80
2022-10-07T05:15:24.370Z,0.87
2022-10-07T05:17:55.931Z,1.20
2022-10-07T05:20:24.335Z,1.30
2022-10-07T05:22:52.227Z,0.97
2022-10-07T05:25:20.874Z,1.90
2022-10-07T05:27:54.944Z,1.37
2022-10-07T05:30:23.203Z,1.80
2022-10-07T05:32:51.792Z,1.40
2022-10-07T05:35:19.847Z,1.10
2022-10-07T05:37:51.227Z,0.90
2022-10-07T05:40:20.153Z,0.97
2022-10-07T05:42:50.137Z,0.70
2022-10-07T05:45:21.514Z,0.77
2022-10-07T05:47:51.361Z,1.10
2022-10-07T05:50:20.568Z,0.90
2022-10-07T05:52:52.077Z,0.93
2022-10-07T05:55:21.059Z,1.47
2022-10-07T05:57:50.104Z,0.90
2022-10-07T06:00:21.267Z,0.70
2022-10-07T06:02:50.503Z,0.73
2022-10-07T06:05:19.214Z,1.03
2022-10-07T06:07:48.535Z,0.83
2022-10-07T06:10:34.958Z,0.90
2022-10-07T06:13:09.876Z,0.90
2022-10-07T06:15:40.865Z,0.90
2022-10-07T06:18:09.769Z,1.07
2022-10-07T06:20:39.068Z,1.30
2022-10-07T06:23:08.745Z,1.33
2022-10-07T06:25:37.722Z,0.80
2022-10-07T06:28:07.453Z,0.70
2022-10-07T06:30:35.629Z,1.10
2022-10-07T06:33:05.626Z,0.87
2022-10-07T06:35:33.670Z,1.27
2022-10-07T06:38:01.989Z,1.20
2022-10-07T06:40:31.237Z,1.40
2022-10-07T06:43:00.654Z,0.80
2022-10-07T06:45:32.354Z,1.33
2022-10-07T06:48:00.308Z,1.80
2022-10-07T06:50:29.626Z,1.90
2022-10-07T06:52:57.558Z,1.10
2022-10-07T06:55:26.962Z,0.80
2022-10-07T06:57:55.222Z,0.87
2022-10-07T07:00:23.196Z,0.70
2022-10-07T07:02:51.154Z,1.40
2022-10-07T07:05:19.236Z,1.23
2022-10-07T07:07:49.154Z,1.10
2022-10-07T07:10:17.480Z,1.00
2022-10-07T07:12:46.197Z,1.10
2022-10-07T07:15:15.226Z,0.80
2022-10-07T07:17:43.706Z,0.90
2022-10-07T07:20:13.261Z,1.10
2022-10-07T07:22:41.704Z,1.00
2022-10-07T07:25:11.850Z,1.07
2022-10-07T07:27:39.782Z,1.17
2022-10-07T07:30:08.740Z,1.10
2022-10-07T07:32:36.599Z,1.30
2022-10-07T07:35:05.247Z,1.17
2022-10-07T07:37:33.841Z,1.43
2022-10-07T07:40:01.771Z,1.70
2022-10-07T07:42:31.048Z,1.60
2022-10-07T07:44:59.979Z,1.93
2022-10-07T07:47:28.013Z,1.70
2022-10-07T07:49:55.947Z,1.70
2022-10-07T07:52:25.651Z,1.23
2022-10-07T07:54:57.855Z,1.60
2022-10-07T07:57:26.037Z,1.47
2022-10-07T07:59:55.856Z,1.07
2022-10-07T08:02:24.418Z,2.23
2022-10-07T08:04:53.948Z,2.03
2022-10-07T08:07:21.980Z,1.40
2022-10-07T08:09:50.392Z,1.83
2022-10-07T08:12:21.078Z,1.60
2022-10-07T08:14:49.214Z,1.80
2022-10-07T08:17:18.509Z,1.90
2022-10-07T08:19:46.420Z,1.73
2022-10-07T08:22:17.752Z,2.00
2022-10-07T08:24:45.983Z,2.63
2022-10-07T08:27:14.169Z,1.73
2022-10-07T08:29:42.111Z,1.80
2022-10-07T08:32:10.085Z,1.87
2022-10-07T08:34:39.451Z,2.07
2022-10-07T08:37:07.427Z,2.30
2022-10-07T08:39:35.309Z,1.63
2022-10-07T08:42:13.353Z,2.17
2022-10-07T08:44:43.865Z,1.70
2022-10-07T08:47:17.927Z,1.50
2022-10-07T08:49:55.906Z,2.10
2022-10-07T08:52:33.252Z,2.00
2022-10-07T08:55:01.633Z,2.10
2022-10-07T08:57:47.281Z,1.80
2022-10-07T09:00:19.779Z,1.70
2022-10-07T09:03:07.415Z,1.40
2022-10-07T09:05:41.674Z,1.40
2022-10-07T09:08:15.420Z,2.33
2022-10-07T09:10:48.591Z,1.90
2022-10-07T09:13:20.848Z,2.00
2022-10-07T09:15:53.853Z,1.53
2022-10-07T09:18:25.931Z,1.70
2022-10-07T09:20:57.001Z,1.63
2022-10-07T09:23:29.148Z,1.70
2022-10-07T09:25:57.219Z,2.13
2022-10-07T09:28:29.513Z,1.50
2022-10-07T09:30:59.165Z,1.77
2022-10-07T09:33:29.704Z,1.60
2022-10-07T09:36:05.783Z,1.90
2022-10-07T09:38:36.960Z,1.63
2022-10-07T09:41:16.892Z,1.30
2022-10-07T09:44:05.826Z,1.97
2022-10-07T09:46:47.588Z,1.80
2022-10-07T09:49:41.107Z,1.60
2022-10-07T09:52:18.987Z,1.87
2022-10-07T09:54:48.872Z,1.40
2022-10-07T09:57:29.971Z,1.50
2022-10-07T10:00:27.614Z,1.10
2022-10-07T10:03:05.220Z,2.03
2022-10-07T10:05:35.796Z,1.40
2022-10-07T10:08:07.598Z,1.70
2022-10-07T10:10:37.386Z,1.23
2022-10-07T10:13:07.054Z,1.20
2022-10-07T10:15:43.101Z,1.83
2022-10-07T10:18:36.909Z,1.77
2022-10-07T10:21:30.291Z,1.60
2022-10-07T10:24:01.120Z,1.53
2022-10-07T10:26:51.945Z,1.40
2022-10-07T10:29:55.875Z,1.37
2022-10-07T10:32:52.140Z,1.33
2022-10-07T10:35:26.663Z,1.03
2022-10-07T10:38:15.195Z,1.33
2022-10-07T10:40:51.740Z,1.60
2022-10-07T10:43:27.419Z,1.47
2022-10-07T10:46:13.642Z,1.20
2022-10-07T10:48:46.723Z,1.23
2022-10-07T10:51:31.472Z,1.50
2022-10-07T10:54:16.287Z,1.20
2022-10-07T10:56:51.417Z,1.43
2022-10-07T10:59:34.364Z,0.80
2022-10-07T11:02:15.612Z,1.40
2022-10-07T11:04:47.780Z,1.13
2022-10-07T11:07:21.268Z,0.80
2022-10-07T11:09:52.201Z,1.20
2022-10-07T11:12:27.693Z,1.37
2022-10-07T11:15:02.179Z,1.10
2022-10-07T11:17:36.397Z,1.90
2022-10-07T11:20:16.452Z,1.37
2022-10-07T11:22:50.673Z,1.17
2022-10-07T11:25:27.261Z,0.97
2022-10-07T11:28:03.539Z,1.10
2022-10-07T11:30:42.929Z,1.50
2022-10-07T11:33:18.301Z,1.70
2022-10-07T11:35:53.004Z,1.40
2022-10-07T11:38:25.697Z,1.90
2022-10-07T11:40:56.335Z,1.40
2022-10-07T11:43:30.032Z,1.47
2022-10-07T11:46:02.287Z,2.10
2022-10-07T11:48:38.864Z,1.40
2022-10-07T11:51:09.243Z,1.20
2022-10-07T11:53:39.785Z,1.30
2022-10-07T11:56:17.701Z,1.60
2022-10-07T11:58:48.823Z,1.33
2022-10-07T12:01:51.373Z,1.27
2022-10-07T12:04:38.352Z,1.90
2022-10-07T12:07:35.192Z,1.33
2022-10-07T12:10:28.397Z,0.90
2022-10-07T12:13:00.121Z,1.47
2022-10-07T12:15:32.774Z,1.30
2022-10-07T12:18:29.324Z,1.60
2022-10-07T12:21:06.817Z,1.20
2022-10-07T12:23:47.231Z,1.80
2022-10-07T12:26:46.063Z,1.23
2022-10-07T12:29:27.529Z,1.23
2022-10-07T12:31:56.937Z,1.37
2022-10-07T12:34:43.934Z,1.30
2022-10-07T12:37:36.937Z,1.43
2022-10-07T12:40:14.174Z,1.47
2022-10-07T12:42:54.439Z,0.87
2022-10-07T12:45:26.900Z,1.40
2022-10-07T12:47:59.824Z,1.27
2022-10-07T12:50:32.785Z,1.13
2022-10-07T12:53:04.250Z,1.23
2022-10-07T12:55:36.960Z,1.80
2022-10-07T12:58:34.594Z,1.83
2022-10-07T13:01:17.736Z,1.27
2022-10-07T13:04:09.642Z,1.13
2022-10-07T13:07:10.557Z,1.30
2022-10-07T13:10:06.814Z,1.40
2022-10-07T13:12:43.401Z,1.40
2022-10-07T13:15:26.281Z,1.60
2022-10-07T13:18:00.419Z,1.50
2022-10-07T13:20:56.808Z,1.50
2022-10-07T13:23:27.670Z,1.60
2022-10-07T13:25:58.421Z,1.70
2022-10-07T13:28:32.022Z,1.47
2022-10-07T13:31:14.757Z,1.70
2022-10-07T13:33:44.361Z,1.00
2022-10-07T13:36:19.803Z,1.20
2022-10-07T13:38:49.073Z,1.50
2022-10-07T13:41:22.268Z,1.53
2022-10-07T13:43:54.152Z,0.90
2022-10-07T13:46:24.772Z,1.20
2022-10-07T13:48:56.274Z,1.63
2022-10-07T13:51:35.783Z,1.40
2022-10-07T13:54:06.536Z,1.90
2022-10-07T13:56:36.138Z,1.60
2022-10-07T13:59:06.847Z,1.50
2022-10-07T14:01:39.826Z,1.23
2022-10-07T14:04:19.825Z,2.03
2022-10-07T14:06:56.115Z,1.90
2022-10-07T14:09:34.533Z,1.80
2022-10-07T14:12:06.161Z,2.57
2022-10-07T14:14:38.040Z,1.27
2022-10-07T14:17:12.234Z,1.83
2022-10-07T14:19:40.636Z,1.50
2022-10-07T14:22:20.062Z,1.90
2022-10-07T14:24:56.404Z,1.80
2022-10-07T14:28:15.668Z,1.60
2022-10-07T14:31:02.513Z,2.00
2022-10-07T14:33:58.757Z,1.70
2022-10-07T14:36:27.358Z,2.07
2022-10-07T14:38:59.844Z,1.60
2022-10-07T14:41:30.469Z,2.00
2022-10-07T14:44:00.240Z,2.00
2022-10-07T14:46:30.330Z,1.33
2022-10-07T14:48:58.744Z,1.93
2022-10-07T14:51:30.080Z,1.63
2022-10-07T14:54:06.149Z,1.53
2022-10-07T14:56:37.105Z,1.40
2022-10-07T14:59:06.562Z,1.57
2022-10-07T15:01:35.147Z,1.50
2022-10-07T15:04:03.262Z,1.77
2022-10-07T15:06:31.525Z,1.73
2022-10-07T15:09:01.085Z,1.70
2022-10-07T15:11:29.217Z,2.47
2022-10-07T15:13:57.341Z,1.73
2022-10-07T15:16:28.598Z,1.80
2022-10-07T15:18:56.760Z,1.90
2022-10-07T15:21:25.122Z,1.73
2022-10-07T15:23:53.934Z,2.40
2022-10-07T15:26:25.062Z,2.60
2022-10-07T15:28:54.303Z,1.80
2022-10-07T15:31:24.246Z,1.53
2022-10-07T15:33:57.499Z,2.13
2022-10-07T15:36:26.571Z,2.20
2022-10-07T15:38:54.551Z,1.60
2022-10-07T15:41:35.405Z,2.00
2022-10-07T15:44:05.766Z,1.90
2022-10-07T15:46:33.905Z,1.70
2022-10-07T15:49:03.526Z,1.80
2022-10-07T15:51:31.689Z,1.67
2022-10-07T15:54:00.027Z,2.20
2022-10-07T15:56:27.989Z,2.20
2022-10-07T15:58:58.574Z,1.73
2022-10-07T16:01:28.338Z,1.47
2022-10-07T16:03:57.080Z,1.80
2022-10-07T16:06:26.526Z,2.00
2022-10-07T16:08:56.476Z,1.97
2022-10-07T16:11:24.558Z,1.87
2022-10-07T16:13:52.838Z,1.90
2022-10-07T16:16:24.488Z,1.80
2022-10-07T16:18:54.082Z,1.60
2022-10-07T16:21:23.769Z,1.87
2022-10-07T16:23:52.941Z,1.50
2022-10-07T16:26:22.396Z,1.50
2022-10-07T16:29:09.395Z,1.67
2022-10-07T16:31:41.304Z,1.50
2022-10-07T16:34:11.049Z,1.60
2022-10-07T16:36:45.368Z,1.93
2022-10-07T16:39:14.359Z,1.73
2022-10-07T16:41:42.514Z,1.67
2022-10-07T16:44:10.894Z,1.80
2022-10-07T16:46:41.085Z,1.80
2022-10-07T16:49:13.737Z,1.30
2022-10-07T16:51:41.774Z,1.43
2022-10-07T16:54:13.166Z,1.40
2022-10-07T16:56:44.148Z,1.80
2022-10-07T16:59:16.465Z,1.47
2022-10-07T17:01:49.660Z,2.10
2022-10-07T17:04:18.592Z,1.70
2022-10-07T17:06:46.818Z,1.70
2022-10-07T17:09:15.744Z,1.73
2022-10-07T17:11:43.882Z,1.53
2022-10-07T17:14:15.568Z,1.70
2022-10-07T17:16:45.644Z,3.10
2022-10-07T17:19:17.483Z,2.10
2022-10-07T17:21:52.168Z,1.70
2022-10-07T17:24:22.428Z,2.03
2022-10-07T17:26:52.620Z,2.00
2022-10-07T17:29:22.791Z,2.13
2022-10-07T17:31:51.248Z,1.63
2022-10-07T17:34:22.840Z,2.00
2022-10-07T17:36:51.856Z,1.73
2022-10-07T17:39:20.031Z,2.13
2022-10-07T17:41:48.243Z,1.70
2022-10-07T17:44:16.137Z,1.90
2022-10-07T17:46:44.397Z,2.23
2022-10-07T17:49:14.220Z,1.77
2022-10-07T17:51:44.460Z,1.70
2022-10-07T17:54:14.273Z,1.73
2022-10-07T17:56:47.558Z,1.87
2022-10-07T17:59:15.745Z,1.63
2022-10-07T18:01:44.523Z,2.07
2022-10-07T18:04:15.502Z,2.13
2022-10-07T18:06:47.472Z,1.63
2022-10-07T18:09:18.790Z,2.00
2022-10-07T18:12:06.398Z,1.80
2022-10-07T18:14:54.122Z,2.00
2022-10-07T18:17:22.978Z,2.40
2022-10-07T18:19:51.108Z,2.43
2022-10-07T18:22:20.782Z,2.30
2022-10-07T18:24:49.791Z,1.80
2022-10-07T18:27:17.801Z,2.17
2022-10-07T18:29:45.834Z,1.60
2022-10-07T18:32:13.869Z,2.03
2022-10-07T18:34:41.887Z,1.70
2022-10-07T18:37:09.928Z,1.50
2022-10-07T18:39:39.768Z,1.70
2022-10-07T18:42:08.314Z,1.30
2022-10-07T18:44:36.301Z,2.20
2022-10-07T18:47:04.364Z,2.10
2022-10-07T18:49:32.280Z,2.43
2022-10-07T18:52:00.459Z,1.90
2022-10-07T18:54:28.415Z,1.70
2022-10-07T18:56:57.725Z,2.00
2022-10-07T18:59:25.699Z,1.40
2022-10-07T19:01:53.710Z,2.23
2022-10-07T19:04:22.639Z,2.00
2022-10-07T19:06:50.534Z,1.40
2022-10-07T19:09:20.057Z,1.83
2022-10-07T19:11:48.177Z,2.20
2022-10-07T19:14:17.272Z,1.70
2022-10-07T19:16:48.996Z,1.60
2022-10-07T19:19:21.015Z,1.50
2022-10-07T19:21:51.449Z,1.70
2022-10-07T19:24:19.722Z,1.67
2022-10-07T19:26:51.380Z,1.93
2022-10-07T19:29:20.613Z,1.77
2022-10-07T19:31:50.055Z,2.20
2022-10-07T19:34:22.837Z,1.97
2022-10-07T19:36:51.309Z,1.83
2022-10-07T19:39:21.015Z,1.97
2022-10-07T19:41:51.144Z,2.17
2022-10-07T19:44:21.027Z,1.90
2022-10-07T19:46:52.414Z,1.93
2022-10-07T19:49:20.439Z,2.53
2022-10-07T19:51:48.355Z,1.90
2022-10-07T19:54:16.271Z,2.27
2022-10-07T19:56:48.789Z,2.60
2022-10-07T19:59:16.655Z,1.93
2022-10-07T20:01:47.527Z,1.93
2022-10-07T20:04:17.030Z,2.63
2022-10-07T20:06:45.474Z,2.13
2022-10-07T20:09:16.135Z,1.70
2022-10-07T20:11:44.640Z,1.77
2022-10-07T20:14:13.544Z,1.53
2022-10-07T20:16:41.525Z,1.90
2022-10-07T20:19:18.775Z,2.23
2022-10-07T20:21:48.477Z,1.90
2022-10-07T20:24:17.810Z,2.20
2022-10-07T20:26:46.298Z,2.00
2022-10-07T20:29:16.531Z,2.30
2022-10-07T20:31:44.963Z,1.50
2022-10-07T20:34:15.880Z,2.00
2022-10-07T20:36:44.487Z,1.90
2022-10-07T20:39:34.377Z,2.10
2022-10-07T20:42:20.399Z,1.70
2022-10-07T20:44:49.300Z,2.00
2022-10-07T20:47:18.296Z,2.20
2022-10-07T20:49:48.773Z,2.10
2022-10-07T20:52:18.630Z,1.90
2022-10-07T20:54:47.372Z,1.77
2022-10-07T20:57:28.452Z,2.77
2022-10-07T20:59:56.648Z,1.90
2022-10-07T21:02:25.680Z,1.77
2022-10-07T21:04:55.043Z,1.67
2022-10-07T21:07:23.264Z,2.40
2022-10-07T21:09:51.246Z,2.00
2022-10-07T21:12:19.447Z,2.10
2022-10-07T21:14:48.532Z,1.80
2022-10-07T21:17:17.101Z,2.23
2022-10-07T21:19:45.225Z,2.07
2022-10-07T21:22:14.492Z,1.87
2022-10-07T21:24:42.423Z,1.93
2022-10-07T21:27:10.607Z,2.00
2022-10-07T21:29:40.980Z,2.53
2022-10-07T21:32:10.229Z,2.23
2022-10-07T21:34:38.307Z,2.20
2022-10-07T21:37:06.266Z,2.40
2022-10-07T21:39:35.569Z,1.67
2022-10-07T21:42:03.477Z,2.40
2022-10-07T21:44:33.266Z,2.40
2022-10-07T21:47:01.271Z,1.83
2022-10-07T21:49:29.152Z,2.27
2022-10-07T21:51:57.108Z,2.07
2022-10-07T21:54:26.129Z,2.20
2022-10-07T21:56:55.439Z,1.70
2022-10-07T21:59:23.322Z,1.90
2022-10-07T22:01:51.257Z,2.03
2022-10-07T22:04:20.259Z,2.27
2022-10-07T22:07:05.597Z,2.10
2022-10-07T22:09:33.644Z,2.23
2022-10-07T22:12:02.995Z,2.60
2022-10-07T22:14:30.903Z,2.27
2022-10-07T22:16:58.828Z,2.00
2022-10-07T22:19:26.817Z,2.60
2022-10-07T22:21:55.253Z,1.90
2022-10-07T22:24:24.083Z,2.63
2022-10-07T22:26:52.145Z,2.67
2022-10-07T22:29:23.042Z,2.20
2022-10-07T22:31:51.326Z,1.90
2022-10-07T22:34:36.747Z,2.77
2022-10-07T22:37:06.210Z,1.80
2022-10-07T22:39:34.074Z,2.00
2022-10-07T22:42:02.880Z,2.33
2022-10-07T22:44:32.094Z,2.37
2022-10-07T22:47:00.444Z,2.40
2022-10-07T22:49:30.266Z,2.20
2022-10-07T22:51:59.676Z,1.97
2022-10-07T22:54:28.058Z,2.10
2022-10-07T22:56:55.955Z,2.60
2022-10-07T22:59:23.960Z,2.00
2022-10-07T23:01:57.438Z,2.47
2022-10-07T23:04:26.106Z,2.20
2022-10-07T23:06:53.989Z,2.17
2022-10-07T23:09:21.998Z,2.17
2022-10-07T23:11:51.234Z,1.67
2022-10-07T23:14:19.082Z,1.83
2022-10-07T23:16:47.247Z,2.00
2022-10-07T23:19:16.523Z,2.10
2022-10-07T23:21:44.741Z,2.33
2022-10-07T23:24:14.175Z,2.10
2022-10-07T23:26:43.268Z,2.50
2022-10-07T23:29:11.798Z,2.30
2022-10-07T23:31:40.282Z,2.27
2022-10-07T23:34:08.262Z,2.17
2022-10-07T23:36:37.853Z,2.20
2022-10-07T23:39:05.843Z,2.33
2022-10-07T23:41:34.020Z,2.20
2022-10-07T23:44:03.290Z,2.27
2022-10-07T23:46:33.875Z,1.43
2022-10-07T23:49:02.489Z,2.23
2022-10-07T23:51:32.274Z,1.73
2022-10-07T23:54:03.390Z,1.93
2022-10-07T23:56:32.110Z,2.50
2022-10-07T23:59:01.377Z,1.87
